Time;durP1;ratioP1;P1;durP2;ratioP2;P2;SDS_P1;SDS_P2;PMS_P1;PMS_P2;Temp;Humidity;BMP_temperature;BMP_pressure;BME280_temperature;BME280_humidity;BME280_pressure;Samples;Min_cycle;Max_cycle;Signal;HPM_P1;HPM_P2
2023/12/27 00:02:01;;;;;;;12.90;7.28;;;;;;;3.03;100.00;102115.19;5072573;28;20094;-76
2023/12/27 00:04:26;;;;;;;14.18;7.93;;;;;;;2.95;100.00;102112.75;5072559;28;20090;-76
2023/12/27 00:06:53;;;;;;;11.98;7.43;;;;;;;2.90;100.00;102111.94;5071350;28;20020;-76
2023/12/27 00:09:18;;;;;;;13.35;7.38;;;;;;;2.91;100.00;102113.63;5072174;28;20051;-78
2023/12/27 00:11:43;;;;;;;14.05;7.38;;;;;;;2.90;100.00;102116.19;5072635;28;20020;-76
2023/12/27 00:14:09;;;;;;;10.77;7.18;;;;;;;2.86;100.00;102098.38;5070509;28;20093;-76
2023/12/27 00:16:34;;;;;;;15.85;7.45;;;;;;;2.84;100.00;102094.97;5072585;28;20097;-76
2023/12/27 00:18:59;;;;;;;15.10;7.80;;;;;;;2.77;100.00;102087.41;5071199;28;20028;-76
2023/12/27 00:21:25;;;;;;;15.23;7.90;;;;;;;2.84;100.00;102094.97;5072429;28;20029;-76
2023/12/27 00:23:50;;;;;;;16.70;8.63;;;;;;;2.82;100.00;102098.41;5072361;28;20037;-76
2023/12/27 00:26:15;;;;;;;13.77;8.43;;;;;;;2.56;100.00;102071.47;5072720;28;20142;-76
2023/12/27 00:28:41;;;;;;;16.35;8.57;;;;;;;2.73;100.00;102106.16;5072102;28;20025;-76
2023/12/27 00:31:06;;;;;;;14.18;8.10;;;;;;;2.69;100.00;102110.44;5074404;28;20024;-76
2023/12/27 00:33:31;;;;;;;14.32;8.50;;;;;;;2.70;100.00;102121.50;5076248;28;20021;-76
2023/12/27 00:35:57;;;;;;;16.92;8.15;;;;;;;2.54;100.00;102097.81;5076355;28;20400;-77
2023/12/27 00:38:22;;;;;;;16.77;8.80;;;;;;;2.51;100.00;102093.63;5076147;28;20044;-75
2023/12/27 00:40:47;;;;;;;15.68;8.82;;;;;;;2.64;100.00;102111.34;5076236;28;20400;-75
2023/12/27 00:43:13;;;;;;;16.48;8.38;;;;;;;2.61;100.00;102098.63;5076184;28;20036;-75
2023/12/27 00:45:38;;;;;;;13.65;8.55;;;;;;;2.63;100.00;102104.56;5076144;28;20035;-75
2023/12/27 00:48:04;;;;;;;17.30;8.93;;;;;;;2.61;100.00;102099.47;5076048;28;20032;-75
2023/12/27 00:50:29;;;;;;;15.77;9.13;;;;;;;2.65;100.00;102096.00;5091135;28;20423;-80
2023/12/27 00:52:54;;;;;;;18.48;9.55;;;;;;;2.74;100.00;102100.19;5075797;28;20071;-75
2023/12/27 00:55:19;;;;;;;19.27;9.63;;;;;;;2.75;100.00;102096.78;5075862;28;20028;-74
2023/12/27 00:57:45;;;;;;;18.75;9.95;;;;;;;2.75;100.00;102100.19;5075908;28;20078;-74
2023/12/27 01:00:11;;;;;;;16.98;10.23;;;;;;;2.62;100.00;102077.34;5075897;28;20073;-74
2023/12/27 01:02:36;;;;;;;18.40;10.13;;;;;;;2.70;100.00;102093.44;5075665;28;20086;-75
2023/12/27 01:05:02;;;;;;;14.73;9.02;;;;;;;2.76;100.00;102104.44;5075695;28;20111;-75
2023/12/27 01:07:27;;;;;;;15.77;9.35;;;;;;;2.74;100.00;102102.72;5075764;28;20036;-75
2023/12/27 01:09:53;;;;;;;13.82;9.23;;;;;;;2.73;100.00;102108.69;5075440;28;20040;-75
2023/12/27 01:12:19;;;;;;;15.68;9.00;;;;;;;2.71;100.00;102108.72;5075699;28;20068;-75
2023/12/27 01:14:45;;;;;;;16.35;9.80;;;;;;;2.56;100.00;102080.84;5075601;28;20095;-74
2023/12/27 01:17:10;;;;;;;16.75;9.52;;;;;;;2.66;100.00;102099.44;5075370;28;20465;-75
2023/12/27 01:19:35;;;;;;;14.95;9.20;;;;;;;2.59;100.00;102088.44;5075165;28;20032;-75
2023/12/27 01:22:01;;;;;;;14.52;8.93;;;;;;;2.57;100.00;102090.16;5075321;28;20048;-76
2023/12/27 01:24:26;;;;;;;18.02;9.65;;;;;;;2.55;100.00;102091.88;5074026;28;20028;-73
2023/12/27 01:26:52;;;;;;;18.23;10.10;;;;;;;2.24;100.00;102030.97;5075461;28;20028;-75
2023/12/27 01:29:17;;;;;;;17.90;9.40;;;;;;;2.30;100.00;102048.78;5075277;28;20021;-75
2023/12/27 01:31:42;;;;;;;18.75;9.88;;;;;;;2.25;100.00;102034.38;5075275;28;20024;-75
2023/12/27 01:34:08;;;;;;;18.38;9.88;;;;;;;2.39;100.00;102057.19;5073791;28;20472;-76
2023/12/27 01:36:33;;;;;;;17.42;9.73;;;;;;;2.23;100.00;102039.47;5073141;28;20060;-75
2023/12/27 01:38:58;;;;;;;19.92;9.63;;;;;;;2.48;100.00;102082.59;5075114;28;20059;-75
2023/12/27 01:41:23;;;;;;;16.25;8.98;;;;;;;2.40;100.00;102074.19;5072671;28;20074;-76
2023/12/27 01:43:49;;;;;;;17.23;8.73;;;;;;;2.44;100.00;102083.47;5075183;28;20028;-75
2023/12/27 01:46:14;;;;;;;15.15;9.50;;;;;;;2.37;100.00;102071.66;5074976;28;20032;-74
2023/12/27 01:48:41;;;;;;;19.33;10.35;;;;;;;2.41;100.00;102078.41;5074715;28;20052;-74
2023/12/27 01:51:07;;;;;;;16.83;10.23;;;;;;;2.30;100.00;102060.66;5075035;28;20387;-75
2023/12/27 01:53:33;;;;;;;18.52;10.38;;;;;;;2.29;100.00;102067.47;5074896;28;20024;-76
2023/12/27 01:56:01;;;;;;;14.75;9.25;;;;;;;2.37;100.00;102086.97;5074857;28;20559;-75
2023/12/27 01:58:27;;;;;;;15.38;9.13;;;;;;;2.38;100.00;102093.75;5074764;28;20031;-74
2023/12/27 02:00:52;;;;;;;16.90;10.27;;;;;;;2.36;100.00;102100.53;5074940;28;20373;-75
2023/12/27 02:03:18;;;;;;;15.80;9.52;;;;;;;2.17;100.00;102056.56;5074496;28;20115;-75
2023/12/27 02:05:45;;;;;;;16.25;9.38;;;;;;;2.35;100.00;102084.41;5074533;28;20052;-79
2023/12/27 02:08:12;;;;;;;18.75;10.18;;;;;;;2.40;100.00;102080.13;5074650;28;20093;-74
2023/12/27 02:10:38;;;;;;;18.88;10.00;;;;;;;2.38;100.00;102069.09;5074362;28;20044;-75
2023/12/27 02:13:04;;;;;;;18.42;10.20;;;;;;;2.43;100.00;102081.78;5074679;28;20025;-75
2023/12/27 02:15:29;;;;;;;21.60;11.20;;;;;;;2.46;100.00;102074.97;5074494;28;20043;-75
2023/12/27 02:17:56;;;;;;;21.42;12.02;;;;;;;2.47;100.00;102079.22;5074490;28;20024;-75
2023/12/27 02:20:23;;;;;;;15.80;11.57;;;;;;;2.50;100.00;102079.19;5074051;28;20484;-75
2023/12/27 02:22:52;;;;;;;20.95;12.07;;;;;;;2.53;100.00;102076.59;5074318;28;20056;-75
2023/12/27 02:25:18;;;;;;;22.67;12.80;;;;;;;2.58;100.00;102081.66;5074143;28;20060;-75
2023/12/27 02:27:45;;;;;;;21.10;12.93;;;;;;;2.65;100.00;102072.22;5074305;28;20110;-75
2023/12/27 02:30:21;;;;;;;18.70;11.88;;;;;;;2.39;100.00;102021.50;5072730;28;20056;-76
2023/12/27 02:32:48;;;;;;;24.48;14.82;;;;;;;2.62;100.00;102045.06;5074173;28;20070;-79
2023/12/27 02:35:13;;;;;;;21.00;13.05;;;;;;;2.78;100.00;102069.53;5073934;28;20025;-75
2023/12/27 02:37:39;;;;;;;21.05;12.25;;;;;;;2.76;100.00;102050.03;5072732;28;20037;-76
2023/12/27 02:40:05;;;;;;;23.73;12.70;;;;;;;2.89;100.00;102061.78;5073938;28;20056;-75
2023/12/27 02:42:31;;;;;;;23.77;13.63;;;;;;;2.92;100.00;102059.19;5074164;28;20103;-75
2023/12/27 02:44:57;;;;;;;22.15;11.98;;;;;;;2.96;100.00;102057.44;5073709;28;20507;-77
2023/12/27 02:47:22;;;;;;;22.45;11.40;;;;;;;2.84;100.00;102033.75;5073822;28;20068;-81
2023/12/27 02:49:47;;;;;;;18.67;10.77;;;;;;;2.98;100.00;102061.66;5073674;28;20115;-75
2023/12/27 02:52:13;;;;;;;21.45;11.20;;;;;;;2.90;100.00;102032.00;5073700;28;20078;-82
2023/12/27 02:54:38;;;;;;;24.52;10.90;;;;;;;2.86;100.00;102015.91;5072711;28;20060;-75
2023/12/27 02:57:03;;;;;;;24.45;11.23;;;;;;;2.93;100.00;102020.03;5089005;28;20063;-75
2023/12/27 02:59:29;;;;;;;25.02;12.32;;;;;;;3.02;100.00;102031.84;5073595;28;20028;-82
2023/12/27 03:01:54;;;;;;;22.40;11.10;;;;;;;2.93;100.00;102003.88;5072121;28;20484;-82
2023/12/27 03:04:19;;;;;;;23.80;10.68;;;;;;;2.85;100.00;101988.66;5073300;28;20032;-82
2023/12/27 03:06:45;;;;;;;19.67;11.65;;;;;;;2.79;100.00;101965.81;5073432;28;20021;-76
2023/12/27 03:09:10;;;;;;;22.75;13.85;;;;;;;3.08;100.00;102013.91;5073162;28;20080;-76
2023/12/27 03:11:36;;;;;;;26.02;15.02;;;;;;;3.03;100.00;102010.56;5073098;28;20059;-76
2023/12/27 03:14:01;;;;;;;27.38;15.50;;;;;;;3.09;100.00;102018.16;5073614;28;20476;-76
2023/12/27 03:16:28;;;;;;;28.65;15.15;;;;;;;3.23;100.00;102023.06;5073170;28;20040;-81
2023/12/27 03:18:53;;;;;;;25.52;16.50;;;;;;;3.30;100.00;102017.03;5073256;28;20617;-81
2023/12/27 03:21:19;;;;;;;24.52;14.13;;;;;;;3.28;100.00;102000.88;5073128;28;20484;-82
2023/12/27 03:23:44;;;;;;;25.75;15.65;;;;;;;3.14;100.00;101950.00;5072002;28;20024;-76
2023/12/27 03:26:09;;;;;;;25.52;14.60;;;;;;;3.48;100.00;101990.38;5072828;28;20044;-81
2023/12/27 03:28:35;;;;;;;26.58;12.95;;;;;;;3.52;100.00;101992.84;5072666;28;20099;-81
2023/12/27 03:31:00;;;;;;;26.02;12.02;;;;;;;3.45;100.00;101969.16;5073418;28;20515;-76
2023/12/27 03:33:26;;;;;;;23.60;11.38;;;;;;;3.55;100.00;101972.41;5072966;28;20048;-80
2023/12/27 03:35:51;;;;;;;24.80;11.57;;;;;;;3.55;100.00;101969.00;5072894;28;20032;-82
2023/12/27 03:38:17;;;;;;;25.30;11.27;;;;;;;3.50;100.00;101952.91;5072950;28;20090;-82
2023/12/27 03:40:42;;;;;;;26.05;11.60;;;;;;;3.64;100.00;101966.31;5071370;28;20055;-82
2023/12/27 03:43:08;;;;;;;21.75;11.68;;;;;;;3.63;100.00;101964.59;5073108;28;20025;-76
2023/12/27 03:45:34;;;;;;;20.42;10.85;;;;;;;3.43;100.00;101919.78;5073111;28;20020;-76
2023/12/27 03:47:59;;;;;;;24.08;11.35;;;;;;;3.69;100.00;101950.03;5072907;28;20025;-81
2023/12/27 03:50:24;;;;;;;21.27;11.07;;;;;;;3.69;100.00;101947.47;5072579;28;20089;-76
2023/12/27 03:52:50;;;;;;;20.48;11.77;;;;;;;3.70;100.00;101940.66;5072674;28;20074;-81
2023/12/27 03:55:15;;;;;;;22.13;11.93;;;;;;;3.45;100.00;101905.31;5072503;28;20427;-76
2023/12/27 03:57:41;;;;;;;24.23;11.40;;;;;;;3.67;100.00;101925.38;5072678;28;20032;-80
2023/12/27 04:00:07;;;;;;;22.88;12.73;;;;;;;3.59;100.00;101917.00;5071069;28;20036;-76
2023/12/27 04:02:32;;;;;;;20.85;12.15;;;;;;;3.55;100.00;101900.88;5072664;28;20040;-76
2023/12/27 04:04:57;;;;;;;20.48;11.35;;;;;;;3.64;100.00;101918.63;5072301;28;20024;-76
2023/12/27 04:07:23;;;;;;;24.15;12.00;;;;;;;3.66;100.00;101919.44;5072526;28;20480;-75
2023/12/27 04:09:48;;;;;;;22.98;11.73;;;;;;;3.69;100.00;101921.09;5071931;28;20052;-76
2023/12/27 04:12:13;;;;;;;17.77;11.45;;;;;;;3.71;100.00;101917.63;5072218;28;20041;-76
2023/12/27 04:14:39;;;;;;;21.50;10.60;;;;;;;3.68;100.00;101912.56;5072240;28;20031;-76
2023/12/27 04:17:04;;;;;;;21.80;11.30;;;;;;;3.75;100.00;101915.88;5072690;28;20025;-76
2023/12/27 04:19:29;;;;;;;23.10;11.85;;;;;;;3.78;100.00;101904.75;5072497;28;20032;-75
2023/12/27 04:21:54;;;;;;;23.00;11.23;;;;;;;3.80;100.00;101908.97;5072340;28;20021;-76
2023/12/27 04:24:20;;;;;;;20.85;12.15;;;;;;;3.83;100.00;101905.50;5072372;28;20029;-75
2023/12/27 04:26:45;;;;;;;19.85;11.50;;;;;;;3.84;100.00;101904.66;5072392;28;20151;-75
2023/12/27 04:29:11;;;;;;;18.55;11.23;;;;;;;3.86;100.00;101902.91;5072042;28;20115;-75
2023/12/27 04:31:37;;;;;;;18.60;11.30;;;;;;;3.90;100.00;101899.41;5072278;28;20105;-75
2023/12/27 04:34:02;;;;;;;19.65;11.00;;;;;;;3.94;100.00;101906.19;5072603;28;20020;-76
2023/12/27 04:36:28;;;;;;;24.25;11.50;;;;;;;3.82;100.00;101875.72;5072289;28;20027;-76
2023/12/27 04:38:53;;;;;;;22.50;11.05;;;;;;;3.90;100.00;101882.38;5072365;28;20024;-75
2023/12/27 04:41:18;;;;;;;21.10;11.02;;;;;;;4.03;100.00;101896.63;5072322;28;20024;-75
2023/12/27 04:43:44;;;;;;;21.92;10.80;;;;;;;3.94;100.00;101872.97;5072323;28;20166;-75
2023/12/27 04:46:10;;;;;;;22.95;11.30;;;;;;;4.06;100.00;101882.09;5072608;28;20428;-76
2023/12/27 04:48:35;;;;;;;21.42;11.00;;;;;;;4.17;100.00;101886.13;5072168;28;20111;-75
2023/12/27 04:51:00;;;;;;;21.45;12.50;;;;;;;4.22;100.00;101886.03;5072159;28;20115;-75
2023/12/27 04:53:26;;;;;;;23.10;12.23;;;;;;;4.27;100.00;101890.19;5072160;28;20043;-76
2023/12/27 04:55:51;;;;;;;23.65;10.23;;;;;;;4.12;100.00;101867.47;5072074;28;20545;-76
2023/12/27 04:58:16;;;;;;;19.77;10.85;;;;;;;4.26;100.00;101891.06;5072086;28;20469;-76
2023/12/27 05:00:42;;;;;;;20.67;9.90;;;;;;;4.33;100.00;101886.69;5070685;28;20029;-76
2023/12/27 05:03:07;;;;;;;22.02;10.52;;;;;;;4.40;100.00;101889.94;5072077;28;20024;-77
2023/12/27 05:05:33;;;;;;;19.92;9.68;;;;;;;4.40;100.00;101879.72;5071790;28;20024;-78
2023/12/27 05:07:58;;;;;;;22.10;10.18;;;;;;;4.31;100.00;101856.00;5072067;28;20119;-75
2023/12/27 05:10:23;;;;;;;22.85;11.90;;;;;;;4.14;100.00;101817.19;5071826;28;20128;-76
2023/12/27 05:12:49;;;;;;;19.15;9.77;;;;;;;4.35;100.00;101840.63;5072038;28;20034;-77
2023/12/27 05:15:14;;;;;;;19.20;9.73;;;;;;;4.45;100.00;101853.19;5071825;28;20112;-76
2023/12/27 05:17:39;;;;;;;16.25;9.52;;;;;;;4.47;100.00;101853.97;5074809;28;20044;-76
2023/12/27 05:20:05;;;;;;;20.85;9.65;;;;;;;4.40;100.00;101833.66;5075536;28;20492;-77
2023/12/27 05:22:34;;;;;;;15.57;9.25;;;;;;;4.52;100.00;101853.88;5075507;28;20036;-76
2023/12/27 05:25:00;;;;;;;20.30;10.73;;;;;;;4.51;100.00;101850.47;5075552;28;20032;-77
2023/12/27 05:27:26;;;;;;;19.23;9.38;;;;;;;4.53;100.00;101840.22;5075427;28;20033;-76
2023/12/27 05:29:51;;;;;;;18.17;9.32;;;;;;;4.47;100.00;101830.13;5075337;28;20043;-77
2023/12/27 05:32:17;;;;;;;16.23;8.95;;;;;;;4.58;100.00;101839.25;5075104;28;20040;-78
2023/12/27 05:34:42;;;;;;;21.33;9.30;;;;;;;4.55;100.00;101831.63;5075271;28;20028;-76
2023/12/27 05:37:08;;;;;;;15.90;8.30;;;;;;;4.63;100.00;101838.31;5075115;28;20130;-75
2023/12/27 05:39:34;;;;;;;16.45;8.45;;;;;;;4.53;100.00;101819.78;5075207;28;20031;-78
2023/12/27 05:41:59;;;;;;;18.88;9.63;;;;;;;4.65;100.00;101836.56;5075210;28;20380;-75
2023/12/27 05:44:24;;;;;;;20.42;8.38;;;;;;;4.68;100.00;101833.91;5075036;28;20029;-75
2023/12/27 05:46:50;;;;;;;17.80;8.60;;;;;;;4.56;100.00;101812.00;5074734;28;20039;-76
2023/12/27 05:49:15;;;;;;;17.13;7.72;;;;;;;4.38;100.00;101779.16;5075036;28;20043;-74
2023/12/27 05:51:41;;;;;;;19.55;8.48;;;;;;;4.71;100.00;101821.88;5073494;28;20020;-76
2023/12/27 05:54:06;;;;;;;14.30;8.00;;;;;;;4.72;100.00;101810.81;5073395;28;20116;-75
2023/12/27 05:56:32;;;;;;;20.00;8.80;;;;;;;4.73;100.00;101804.81;5073634;28;20044;-75
2023/12/27 05:58:57;;;;;;;16.15;8.60;;;;;;;4.77;100.00;101808.97;5074879;28;20032;-79
2023/12/27 06:01:22;;;;;;;24.70;9.20;;;;;;;4.66;100.00;101793.03;5074903;28;20460;-76
2023/12/27 06:03:48;;;;;;;22.30;9.07;;;;;;;4.71;100.00;101801.41;5074694;28;20186;-76
2023/12/27 06:06:13;;;;;;;15.35;8.30;;;;;;;4.73;100.00;101802.25;5074455;28;20044;-80
2023/12/27 06:08:38;;;;;;;24.20;8.35;;;;;;;4.76;100.00;101801.31;5074829;28;20024;-77
2023/12/27 06:11:04;;;;;;;20.73;8.23;;;;;;;4.75;100.00;101797.09;5074454;28;20045;-76
2023/12/27 06:13:29;;;;;;;17.40;8.63;;;;;;;4.75;100.00;101791.97;5074594;28;20376;-76
2023/12/27 06:15:54;;;;;;;16.15;8.35;;;;;;;4.76;100.00;101788.53;5074458;28;20384;-76
2023/12/27 06:18:20;;;;;;;18.45;8.00;;;;;;;4.62;100.00;101750.47;5074318;28;20028;-75
2023/12/27 06:20:45;;;;;;;19.25;8.18;;;;;;;4.78;100.00;101776.53;5074402;28;20043;-76
2023/12/27 06:23:10;;;;;;;16.58;8.35;;;;;;;4.72;100.00;101764.75;5074386;28;20027;-76
2023/12/27 06:25:36;;;;;;;15.75;7.80;;;;;;;4.77;100.00;101762.06;5074502;28;20070;-75
2023/12/27 06:28:01;;;;;;;20.55;8.15;;;;;;;4.78;100.00;101768.88;5074230;28;20037;-77
2023/12/27 06:30:27;;;;;;;21.45;9.02;;;;;;;4.73;100.00;101753.63;5074174;28;20554;-75
2023/12/27 06:32:53;;;;;;;15.35;7.40;;;;;;;4.78;100.00;101756.06;5074197;28;20041;-75
2023/12/27 06:35:18;;;;;;;13.75;6.97;;;;;;;4.76;100.00;101745.88;5074142;28;20074;-76
2023/12/27 06:37:44;;;;;;;14.00;7.25;;;;;;;4.79;100.00;101744.94;5074047;28;20025;-75
2023/12/27 06:40:10;;;;;;;15.63;6.85;;;;;;;4.65;100.00;101719.72;5073928;28;20063;-75
2023/12/27 06:42:35;;;;;;;16.92;7.40;;;;;;;4.74;100.00;101724.59;5073975;28;20031;-77
2023/12/27 06:45:01;;;;;;;17.75;8.05;;;;;;;4.60;100.00;101701.91;5073920;28;20020;-76
2023/12/27 06:47:26;;;;;;;20.38;8.10;;;;;;;4.79;100.00;101729.59;5073908;28;20137;-73
2023/12/27 06:49:51;;;;;;;13.43;7.95;;;;;;;4.81;100.00;101721.00;5073503;28;20033;-75
2023/12/27 06:52:17;;;;;;;19.75;8.90;;;;;;;4.86;100.00;101720.91;5073610;28;20036;-75
2023/12/27 06:54:42;;;;;;;15.25;8.45;;;;;;;4.84;100.00;101710.72;5073857;28;20025;-77
2023/12/27 06:57:07;;;;;;;19.00;8.93;;;;;;;4.79;100.00;101701.44;5073512;28;20056;-76
2023/12/27 06:59:33;;;;;;;18.05;8.40;;;;;;;4.88;100.00;101721.69;5073965;28;20036;-76
2023/12/27 07:01:58;;;;;;;17.48;8.00;;;;;;;4.89;100.00;101710.56;5073617;28;20102;-76
2023/12/27 07:04:23;;;;;;;17.20;8.65;;;;;;;4.76;100.00;101687.03;5073406;28;20025;-77
2023/12/27 07:06:48;;;;;;;14.40;8.45;;;;;;;4.90;100.00;101710.53;5071917;28;20048;-76
2023/12/27 07:09:16;;;;;;;17.30;9.60;;;;;;;4.82;100.00;101686.03;5073213;28;20028;-76
2023/12/27 07:11:42;;;;;;;21.73;12.00;;;;;;;4.97;100.00;101711.22;5073293;28;20077;-78
2023/12/27 07:14:07;;;;;;;18.77;10.57;;;;;;;5.00;100.00;101712.88;5073447;28;20068;-76
2023/12/27 07:16:33;;;;;;;17.23;9.35;;;;;;;4.80;100.00;101665.59;5073398;28;20112;-77
2023/12/27 07:18:59;;;;;;;18.10;9.07;;;;;;;5.03;100.00;101698.28;5073225;28;20033;-77
2023/12/27 07:21:24;;;;;;;14.65;8.98;;;;;;;5.07;100.00;101701.59;5073244;28;20032;-75
2023/12/27 07:23:49;;;;;;;12.57;8.27;;;;;;;5.05;100.00;101693.97;5073286;28;20048;-76
2023/12/27 07:26:15;;;;;;;14.70;9.30;;;;;;;4.99;100.00;101678.75;5072937;28;20040;-76
2023/12/27 07:28:40;;;;;;;15.93;8.68;;;;;;;4.99;100.00;101678.75;5072890;28;20040;-75
2023/12/27 07:31:07;;;;;;;11.68;8.20;;;;;;;5.15;100.00;101692.00;5073164;28;20017;-76
2023/12/27 07:33:36;;;;;;;16.45;9.52;;;;;;;5.08;100.00;101680.22;5072998;28;20484;-76
2023/12/27 07:36:02;;;;;;;12.18;8.30;;;;;;;5.19;100.00;101691.88;5072901;28;20028;-75
2023/12/27 07:38:27;;;;;;;14.88;9.18;;;;;;;5.15;100.00;101687.72;5070372;28;20020;-72
2023/12/27 07:40:52;;;;;;;16.55;8.82;;;;;;;5.25;100.00;101684.91;5071841;28;20033;-73
2023/12/27 07:43:22;;;;;;;14.68;9.13;;;;;;;5.24;100.00;101675.56;5071477;28;20115;-74
2023/12/27 07:45:47;;;;;;;12.88;9.23;;;;;;;5.26;100.00;101679.75;5072870;28;20017;-75
2023/12/27 07:48:13;;;;;;;11.27;8.70;;;;;;;5.16;100.00;101662.94;5072734;28;20025;-74
2023/12/27 07:50:39;;;;;;;13.52;9.15;;;;;;;5.38;100.00;101693.94;5072518;28;20029;-75
2023/12/27 07:53:05;;;;;;;14.73;9.48;;;;;;;5.42;100.00;101690.41;5072384;28;20060;-76
2023/12/27 07:55:31;;;;;;;13.65;9.02;;;;;;;5.41;100.00;101671.66;5072706;28;20049;-75
2023/12/27 07:57:56;;;;;;;14.13;10.15;;;;;;;5.53;100.00;101677.31;5072593;28;20017;-75
2023/12/27 08:00:21;;;;;;;14.68;9.70;;;;;;;5.57;100.00;101686.56;5072646;28;20031;-76
2023/12/27 08:02:47;;;;;;;13.10;9.77;;;;;;;5.59;100.00;101677.13;5072796;28;20020;-75
2023/12/27 08:05:12;;;;;;;14.05;10.23;;;;;;;5.63;100.00;101674.44;5072771;28;20024;-75
2023/12/27 08:07:38;;;;;;;13.68;10.32;;;;;;;5.67;100.00;101670.06;5072482;28;20023;-76
2023/12/27 08:10:04;;;;;;;14.73;10.60;;;;;;;5.69;100.00;101678.53;5072525;28;20071;-76
2023/12/27 08:12:30;;;;;;;13.88;10.82;;;;;;;5.73;100.00;101672.44;5072545;28;20032;-76
2023/12/27 08:14:56;;;;;;;14.60;10.80;;;;;;;5.62;100.00;101646.31;5072564;28;20031;-76
2023/12/27 08:17:22;;;;;;;16.77;11.43;;;;;;;5.79;100.00;101667.13;5072645;28;20017;-76
2023/12/27 08:19:47;;;;;;;14.77;10.30;;;;;;;5.71;100.00;101654.56;5072561;28;20388;-76
2023/12/27 08:22:12;;;;;;;15.13;11.43;;;;;;;5.84;100.00;101665.28;5072187;28;20031;-76
2023/12/27 08:24:38;;;;;;;15.57;11.32;;;;;;;5.87;100.00;101657.47;5072376;28;20025;-76
2023/12/27 08:27:03;;;;;;;15.45;11.50;;;;;;;5.78;100.00;101626.16;5072717;28;20028;-77
2023/12/27 08:29:29;;;;;;;17.23;12.07;;;;;;;5.94;100.00;101646.19;5072475;28;20384;-76
2023/12/27 08:31:54;;;;;;;15.75;11.90;;;;;;;5.89;100.00;101627.50;5072373;28;20461;-77
2023/12/27 08:34:20;;;;;;;14.65;11.80;;;;;;;5.99;100.00;101628.09;5072392;28;20094;-76
2023/12/27 08:36:45;;;;;;;15.40;11.70;;;;;;;6.02;100.00;101626.28;5072308;28;20392;-78
2023/12/27 08:39:11;;;;;;;16.27;11.85;;;;;;;6.07;100.00;101618.44;5070692;28;20032;-71
2023/12/27 08:41:37;;;;;;;17.70;12.45;;;;;;;6.10;100.00;101633.75;5072581;28;20020;-73
2023/12/27 08:44:02;;;;;;;16.23;12.02;;;;;;;6.01;100.00;101598.97;5072475;28;20028;-74
2023/12/27 08:46:28;;;;;;;17.88;11.52;;;;;;;6.17;100.00;101617.25;5071996;28;20215;-78
2023/12/27 08:48:54;;;;;;;17.52;11.88;;;;;;;6.21;100.00;101615.47;5071832;28;20074;-79
2023/12/27 08:51:19;;;;;;;16.15;12.23;;;;;;;6.24;100.00;101617.91;5072801;28;20035;-74
2023/12/27 08:53:44;;;;;;;16.33;12.20;;;;;;;6.18;100.00;101603.56;5075556;28;20044;-75
2023/12/27 08:56:10;;;;;;;15.68;11.43;;;;;;;6.32;100.00;101616.78;5075659;28;20157;-82
2023/12/27 08:58:35;;;;;;;16.67;11.75;;;;;;;6.38;100.00;101608.03;5076020;28;20051;-81
2023/12/27 09:01:01;;;;;;;16.05;11.55;;;;;;;6.29;100.00;101586.13;5076003;28;20082;-80
2023/12/27 09:03:27;;;;;;;16.20;11.25;;;;;;;6.18;100.00;101559.13;5073972;28;20089;-85
2023/12/27 09:05:52;;;;;;;15.82;10.80;;;;;;;6.49;100.00;101603.41;5075896;28;20025;-84
2023/12/27 09:08:18;;;;;;;14.93;10.85;;;;;;;6.55;100.00;101586.94;5074472;28;20185;-79
2023/12/27 09:10:43;;;;;;;16.88;10.18;;;;;;;6.58;100.00;101582.53;5075361;28;20056;-81
2023/12/27 09:13:09;;;;;;;16.75;10.23;;;;;;;6.38;100.00;101543.91;5075787;28;20115;-81
2023/12/27 09:15:35;;;;;;;13.20;8.93;;;;;;;6.55;100.00;101566.41;5075340;28;20062;-80
2023/12/27 09:18:00;;;;;;;12.70;9.48;;;;;;;6.51;100.00;101565.69;5074197;28;20028;-84
2023/12/27 09:20:25;;;;;;;13.05;8.80;;;;;;;6.45;100.00;101536.84;5075647;28;20021;-78
2023/12/27 09:22:51;;;;;;;11.10;7.90;;;;;;;6.78;100.00;101584.41;5074903;28;20376;-79
2023/12/27 09:25:16;;;;;;;13.60;8.50;;;;;;;6.53;100.00;101528.00;5074658;28;20396;-80
2023/12/27 09:27:41;;;;;;;13.82;8.52;;;;;;;6.52;100.00;101528.88;5075054;28;20035;-78
2023/12/27 09:30:07;;;;;;;12.82;7.95;;;;;;;6.83;100.00;101572.28;5075411;28;20021;-79
2023/12/27 09:32:32;;;;;;;12.95;7.55;;;;;;;6.84;100.00;101573.94;5075070;28;20024;-78
2023/12/27 09:34:58;;;;;;;11.35;7.03;;;;;;;6.83;100.00;101572.28;5075420;28;20020;-78
2023/12/27 09:37:23;;;;;;;11.43;7.32;;;;;;;6.70;100.00;101540.25;5075321;28;20029;-80
2023/12/27 09:39:48;;;;;;;11.15;7.18;;;;;;;6.85;100.00;101554.25;5075166;28;20028;-79
2023/12/27 09:42:15;;;;;;;12.43;7.28;;;;;;;6.76;100.00;101534.88;5048102;22;20046;-81
2023/12/27 09:44:43;;;;;;;10.10;6.82;;;;;;;6.86;100.00;101546.47;5035267;28;20026;-80
2023/12/27 09:47:10;;;;;;;10.00;7.20;;;;;;;6.65;100.00;101507.91;5035222;28;20026;-81
2023/12/27 09:49:36;;;;;;;10.10;6.32;;;;;;;6.70;100.00;101517.13;5034882;28;20033;-81
2023/12/27 09:52:02;;;;;;;10.35;6.82;;;;;;;6.95;100.00;101552.19;5033234;28;20057;-81
2023/12/27 09:54:28;;;;;;;11.98;6.95;;;;;;;6.96;100.00;101551.28;5034727;28;20485;-80
2023/12/27 09:56:53;;;;;;;12.05;6.93;;;;;;;6.80;100.00;101525.34;5034933;28;20056;-81
2023/12/27 09:59:30;;;;;;;10.15;5.97;;;;;;;7.04;100.00;101557.81;5034696;28;20037;-85
2023/12/27 10:02:02;;;;;;;9.68;6.30;;;;;;;6.74;100.00;101495.59;5034573;28;20385;-81
2023/12/27 10:05:04;;;;;;;10.80;6.35;;;;;;;7.12;100.00;101553.25;5034961;28;20029;-82
2023/12/27 10:07:30;;;;;;;9.98;6.00;;;;;;;7.04;100.00;101533.88;5034740;28;20037;-78
2023/12/27 10:09:57;;;;;;;9.57;5.80;;;;;;;6.84;100.00;101490.97;5034423;28;20025;-80
2023/12/27 10:12:25;;;;;;;8.88;6.13;;;;;;;7.07;100.00;101523.47;5034728;28;20021;-80
2023/12/27 10:14:52;;;;;;;9.48;5.32;;;;;;;7.29;100.00;101539.78;5034198;28;20465;-79
2023/12/27 10:17:19;;;;;;;8.73;5.25;;;;;;;7.30;100.00;101525.19;5034721;28;20036;-80
2023/12/27 10:19:44;;;;;;;9.90;5.72;;;;;;;7.34;100.00;101545.56;5034590;28;20033;-81
2023/12/27 10:22:12;;;;;;;11.25;5.80;;;;;;;7.38;100.00;101546.31;5034471;28;20037;-80
2023/12/27 10:24:38;;;;;;;8.85;5.60;;;;;;;7.39;100.00;101541.09;5034348;28;20101;-81
2023/12/27 10:27:05;;;;;;;9.73;5.40;;;;;;;7.24;100.00;101502.31;5034198;28;20093;-81
2023/12/27 10:29:32;;;;;;;9.15;5.32;;;;;;;7.38;100.00;101505.19;5034305;28;20041;-78
2023/12/27 10:31:58;;;;;;;10.00;5.88;;;;;;;7.21;100.00;101463.91;5034347;28;20049;-76
2023/12/27 10:34:24;;;;;;;7.78;5.32;;;;;;;7.62;100.00;101517.06;5034386;28;20112;-77
2023/12/27 10:36:50;;;;;;;9.60;5.32;;;;;;;7.59;100.00;101506.91;5034051;28;20048;-78
2023/12/27 10:39:17;;;;;;;8.40;5.00;;;;;;;7.65;100.00;101510.97;5033812;28;20462;-79
2023/12/27 10:41:43;;;;;;;8.45;5.07;;;;;;;7.59;100.00;101482.94;5033567;28;20045;-78
2023/12/27 10:44:08;;;;;;;9.27;4.93;;;;;;;7.72;100.00;101482.38;5034170;28;20041;-78
2023/12/27 10:46:34;;;;;;;8.13;4.75;;;;;;;7.85;100.00;101489.59;5034038;28;20075;-83
2023/12/27 10:49:06;;;;;;;8.57;4.68;;;;;;;7.60;100.00;101434.03;5033874;28;20057;-83
2023/12/27 10:51:38;;;;;;;11.43;4.90;;;;;;;7.75;100.00;101473.69;5033763;28;20032;-81
2023/12/27 10:54:04;;;;;;;9.10;4.90;;;;;;;7.96;100.00;101502.84;5032977;28;20029;-78
2023/12/27 10:56:36;;;;;;;7.65;4.90;;;;;;;7.95;100.00;101488.31;5034422;28;20029;-75
2023/12/27 10:59:04;;;;;;;7.57;4.60;;;;;;;7.94;100.00;101476.34;5033529;28;20029;-79
2023/12/27 11:01:32;;;;;;;6.85;4.15;;;;;;;8.01;100.00;101475.22;5033710;28;20029;-80
2023/12/27 11:03:59;;;;;;;9.57;4.05;;;;;;;8.03;100.00;101469.09;5031843;28;20037;-75
2023/12/27 11:06:26;;;;;;;7.03;3.33;;;;;;;8.00;100.00;101453.78;5033721;28;20412;-81
2023/12/27 11:08:53;;;;;;;7.60;2.97;;;;;;;7.87;100.00;101424.38;5031741;28;20056;-78